Scioto Mills, Illinois
Current Conditions -  °F | °C
As of 11:15 PM on Friday 24 Oct 2014 (Local Time) from KFEP Reporting Station
Overcast Overcast  
Wind Chill: 57°   Ceiling: 3500
Heat Index: 57°   Visibility: 10mi
Dew Point: 52°   Wind: 7mph
Humidity: 85%   Direction: 230°SW
Pressure: 29.95"   Gusts: NA
Location:  42.36°N, 89.67°W
Report Text: KFEP 250415Z AUTO 23006KT 10SM SCT013 OVC035 14/11 A2995 RMK AO2 T01370113
Loading
Personal Weather Stations






























Interactive Weather Map
Tropical Storm Tracking
New forecast layout! Learn more

10-Day Weather Forecast

Advertisements
Track Severe Weather on mobile